createdAt,value
2023-04-13T00:00:11.122Z,99404.66
2023-04-13T00:02:40.157Z,99405.53
2023-04-13T00:05:11.197Z,99418.88
2023-04-13T00:07:43.466Z,99402.78
2023-04-13T00:10:12.440Z,99407.44
2023-04-13T00:12:43.049Z,99391.13
2023-04-13T00:15:13.111Z,99405.56
2023-04-13T00:17:43.078Z,99398.16
2023-04-13T00:20:13.359Z,99398.28
2023-04-13T00:22:44.442Z,99395.19
2023-04-13T00:25:15.402Z,99397.63
2023-04-13T00:27:44.850Z,99403.38
2023-04-13T00:30:15.813Z,99395.72
2023-04-13T00:32:46.037Z,99391.25
2023-04-13T00:35:19.015Z,99391.03
2023-04-13T00:37:49.035Z,99389.13
2023-04-13T00:40:18.077Z,99391.25
2023-04-13T00:42:47.386Z,99386.28
2023-04-13T00:45:16.582Z,99384.59
2023-04-13T00:47:48.323Z,99382.59
2023-04-13T00:50:20.718Z,99381.69
2023-04-13T00:52:50.634Z,99378.66
2023-04-13T00:55:22.015Z,99386.22
2023-04-13T00:57:52.660Z,99376.44
2023-04-13T01:00:24.498Z,99370.34
2023-04-13T01:02:53.119Z,99370.66
2023-04-13T01:05:21.888Z,99366.06
2023-04-13T01:08:09.793Z,99380.38
2023-04-13T01:10:48.870Z,99381.72
2023-04-13T01:13:24.680Z,99380.94
2023-04-13T01:16:01.321Z,99392.44
2023-04-13T01:18:31.567Z,99378.91
2023-04-13T01:21:01.199Z,99392.66
2023-04-13T01:23:44.078Z,99389.19
2023-04-13T01:26:12.875Z,99400.31
2023-04-13T01:28:43.401Z,99389.28
2023-04-13T01:31:13.922Z,99407.75
2023-04-13T01:33:43.161Z,99396.91
2023-04-13T01:36:13.069Z,99390.63
2023-04-13T01:38:41.233Z,99405.38
2023-04-13T01:41:10.331Z,99406.19
2023-04-13T01:43:38.808Z,99408.66
2023-04-13T01:46:14.347Z,99415.25
2023-04-13T01:48:49.891Z,99413.56
2023-04-13T01:51:21.780Z,99416.97
2023-04-13T01:53:58.039Z,99416.69
2023-04-13T01:56:28.078Z,99415.72
2023-04-13T01:59:00.005Z,99417.22
2023-04-13T02:01:29.679Z,99424.88
2023-04-13T02:03:58.267Z,99429.44
2023-04-13T02:06:27.022Z,99427.16
2023-04-13T02:08:55.258Z,99435.25
2023-04-13T02:11:23.436Z,99426.81
2023-04-13T02:13:53.127Z,99431.53
2023-04-13T02:16:21.520Z,99431.44
2023-04-13T02:18:51.163Z,99439.22
2023-04-13T02:21:19.491Z,99449.41
2023-04-13T02:23:47.713Z,99446.53
2023-04-13T02:26:16.412Z,99450.63
2023-04-13T02:28:45.564Z,99447.31
2023-04-13T02:31:16.784Z,99454.97
2023-04-13T02:33:46.380Z,99458.13
2023-04-13T02:36:17.564Z,99457.47
2023-04-13T02:38:46.128Z,99468.94
2023-04-13T02:41:14.447Z,99468.38
2023-04-13T02:43:45.719Z,99471.38
2023-04-13T02:46:14.450Z,99463.34
2023-04-13T02:48:42.866Z,99474.50
2023-04-13T02:51:12.305Z,99487.16
2023-04-13T02:53:42.179Z,99473.91
2023-04-13T02:56:11.259Z,99479.63
2023-04-13T02:58:39.531Z,99496.44
2023-04-13T03:01:08.810Z,99494.50
2023-04-13T03:03:38.048Z,99489.09
2023-04-13T03:06:06.956Z,99486.75
2023-04-13T03:08:35.666Z,99492.72
2023-04-13T03:11:06.302Z,99498.34
2023-04-13T03:13:34.551Z,99508.19
2023-04-13T03:16:04.772Z,99510.06
2023-04-13T03:18:33.265Z,99502.28
2023-04-13T03:21:02.664Z,99510.44
2023-04-13T03:23:30.887Z,99523.75
2023-04-13T03:25:59.218Z,99522.56
2023-04-13T03:28:28.953Z,99521.19
2023-04-13T03:30:57.384Z,99533.38
2023-04-13T03:33:25.923Z,99536.16
2023-04-13T03:35:54.221Z,99528.25
2023-04-13T03:38:22.698Z,99531.25
2023-04-13T03:40:50.945Z,99543.47
2023-04-13T03:43:19.344Z,99542.88
2023-04-13T03:45:49.022Z,99541.69
2023-04-13T03:48:17.257Z,99554.09
2023-04-13T03:50:45.453Z,99554.94
2023-04-13T03:53:13.923Z,99547.16
2023-04-13T03:55:42.425Z,99563.69
2023-04-13T03:58:11.223Z,99560.91
2023-04-13T04:00:39.409Z,99563.25
2023-04-13T04:03:09.554Z,99557.28
2023-04-13T04:05:40.235Z,99558.91
2023-04-13T04:08:08.623Z,99567.44
2023-04-13T04:10:37.133Z,99564.56
2023-04-13T04:13:06.080Z,99568.53
2023-04-13T04:15:34.442Z,99581.75
2023-04-13T04:18:02.748Z,99577.06
2023-04-13T04:20:33.087Z,99589.97
2023-04-13T04:23:01.388Z,99597.44
2023-04-13T04:25:29.775Z,99592.00
2023-04-13T04:27:58.340Z,99591.03
2023-04-13T04:30:29.625Z,99587.84
2023-04-13T04:32:59.203Z,99593.91
2023-04-13T04:35:33.818Z,99596.91
2023-04-13T04:38:04.525Z,99600.00
2023-04-13T04:40:35.712Z,99597.88
2023-04-13T04:43:16.023Z,99603.41
2023-04-13T04:45:48.128Z,99600.22
2023-04-13T04:48:17.153Z,99625.22
2023-04-13T04:50:49.107Z,99615.56
2023-04-13T04:53:21.712Z,99617.31
2023-04-13T04:55:50.033Z,99631.63
2023-04-13T04:58:19.630Z,99629.91
2023-04-13T05:00:49.808Z,99640.91
2023-04-13T05:03:18.956Z,99640.16
2023-04-13T05:05:47.683Z,99639.84
2023-04-13T05:08:18.954Z,99643.78
2023-04-13T05:10:48.809Z,99638.41
2023-04-13T05:13:21.351Z,99649.34
2023-04-13T05:15:49.977Z,99647.47
2023-04-13T05:18:18.923Z,99655.91
2023-04-13T05:21:08.950Z,99650.78
2023-04-13T05:23:39.004Z,99652.03
2023-04-13T05:26:11.434Z,99657.03
2023-04-13T05:28:40.823Z,99666.84
2023-04-13T05:31:11.358Z,99651.88
2023-04-13T05:33:43.213Z,99653.44
2023-04-13T05:36:12.006Z,99656.50
2023-04-13T05:38:40.347Z,99672.41
2023-04-13T05:41:10.570Z,99663.22
2023-04-13T05:43:38.800Z,99662.97
2023-04-13T05:46:08.031Z,99662.03
2023-04-13T05:48:36.624Z,99671.97
2023-04-13T05:51:05.086Z,99682.03
2023-04-13T05:53:35.929Z,99683.69
2023-04-13T05:56:04.431Z,99683.63
2023-04-13T05:58:34.721Z,99696.47
2023-04-13T06:01:03.898Z,99706.84
2023-04-13T06:03:32.815Z,99697.13
2023-04-13T06:06:01.363Z,99702.28
2023-04-13T06:08:32.668Z,99723.75
2023-04-13T06:11:04.943Z,99726.09
2023-04-13T06:13:34.832Z,99727.25
2023-04-13T06:16:03.961Z,99729.22
2023-04-13T06:18:32.630Z,99727.31
2023-04-13T06:21:01.129Z,99734.78
2023-04-13T06:23:30.091Z,99739.31
2023-04-13T06:25:59.219Z,99744.78
2023-04-13T06:28:30.544Z,99749.31
2023-04-13T06:31:00.520Z,99745.81
2023-04-13T06:33:28.994Z,99746.47
2023-04-13T06:35:57.576Z,99747.31
2023-04-13T06:38:25.910Z,99751.41
2023-04-13T06:40:54.193Z,99756.22
2023-04-13T06:43:29.186Z,99758.59
2023-04-13T06:46:02.679Z,99761.34
2023-04-13T06:48:32.161Z,99764.94
2023-04-13T06:51:01.234Z,99769.41
2023-04-13T06:53:29.639Z,99763.19
2023-04-13T06:55:58.057Z,99768.72
2023-04-13T06:58:27.173Z,99772.59
2023-04-13T07:00:55.725Z,99777.38
2023-04-13T07:03:25.963Z,99789.47
2023-04-13T07:05:54.575Z,99786.97
2023-04-13T07:08:23.036Z,99792.00
2023-04-13T07:10:55.243Z,99794.00
2023-04-13T07:13:23.658Z,99792.41
2023-04-13T07:15:52.081Z,99799.88
2023-04-13T07:18:20.487Z,99796.84
2023-04-13T07:20:50.155Z,99808.75
2023-04-13T07:23:18.959Z,99801.47
2023-04-13T07:25:47.128Z,99812.44
2023-04-13T07:28:15.669Z,99824.47
2023-04-13T07:30:44.886Z,99821.25
2023-04-13T07:33:13.846Z,99820.63
2023-04-13T07:35:42.146Z,99818.63
2023-04-13T07:38:11.824Z,99827.59
2023-04-13T07:40:40.064Z,99827.22
2023-04-13T07:43:08.257Z,99834.00
2023-04-13T07:45:36.437Z,99841.78
2023-04-13T07:48:05.963Z,99841.81
2023-04-13T07:50:35.281Z,99865.06
2023-04-13T07:53:03.606Z,99853.44
2023-04-13T07:55:33.282Z,99851.28
2023-04-13T07:58:02.053Z,99859.66
2023-04-13T08:00:30.478Z,99861.63
2023-04-13T08:02:58.851Z,99872.66
2023-04-13T08:05:27.509Z,99863.84
2023-04-13T08:07:55.847Z,99866.78
2023-04-13T08:10:24.975Z,99882.28
2023-04-13T08:12:55.647Z,99895.25
2023-04-13T08:15:24.266Z,99897.47
2023-04-13T08:17:52.901Z,99908.13
2023-04-13T08:20:24.268Z,99912.28
2023-04-13T08:22:52.883Z,99923.47
2023-04-13T08:25:21.732Z,99929.56
2023-04-13T08:27:50.625Z,99929.63
2023-04-13T08:30:20.732Z,99931.41
2023-04-13T08:32:49.131Z,99937.53
2023-04-13T08:35:17.624Z,99932.78
2023-04-13T08:37:45.990Z,99947.31
2023-04-13T08:40:15.114Z,99949.41
2023-04-13T08:42:43.676Z,99951.38
2023-04-13T08:45:13.173Z,99950.81
2023-04-13T08:47:43.682Z,99955.19
2023-04-13T08:50:13.120Z,99959.06
2023-04-13T08:52:41.728Z,99961.25
2023-04-13T08:55:11.035Z,99970.41
2023-04-13T08:57:41.636Z,99978.06
2023-04-13T09:00:16.487Z,99982.50
2023-04-13T09:03:03.048Z,99997.06
2023-04-13T09:05:35.318Z,100002.66
2023-04-13T09:08:07.838Z,100001.09
2023-04-13T09:10:36.508Z,100008.16
2023-04-13T09:13:05.318Z,100018.06
2023-04-13T09:15:34.122Z,100014.97
2023-04-13T09:18:12.946Z,100008.28
2023-04-13T09:20:42.578Z,100027.53
2023-04-13T09:23:16.442Z,100027.34
2023-04-13T09:25:48.198Z,100033.53
2023-04-13T09:28:20.107Z,100033.69
2023-04-13T09:30:49.772Z,100045.94
2023-04-13T09:33:20.000Z,100039.22
2023-04-13T09:35:48.524Z,100028.75
2023-04-13T09:38:17.604Z,100031.41
2023-04-13T09:40:54.450Z,100043.63
2023-04-13T09:43:22.843Z,100046.22
2023-04-13T09:45:51.473Z,100037.91
2023-04-13T09:48:23.150Z,100049.13
2023-04-13T09:51:02.467Z,100043.63
2023-04-13T09:53:42.646Z,100054.28
2023-04-13T09:56:12.423Z,100070.88
2023-04-13T09:58:45.644Z,100063.06
2023-04-13T10:01:15.251Z,100071.22
2023-04-13T10:03:46.378Z,100091.47
2023-04-13T10:06:15.411Z,100083.31
2023-04-13T10:08:46.393Z,100090.13
2023-04-13T10:11:16.103Z,100099.78
2023-04-13T10:13:52.022Z,100102.50
2023-04-13T10:16:56.828Z,100118.69
2023-04-13T10:19:31.224Z,100116.63
2023-04-13T10:22:01.397Z,100123.09
2023-04-13T10:24:30.148Z,100113.78
2023-04-13T10:27:01.855Z,100116.81
2023-04-13T10:29:30.915Z,100138.38
2023-04-13T10:32:03.562Z,100139.94
2023-04-13T10:34:35.909Z,100148.78
2023-04-13T10:37:06.872Z,100147.81
2023-04-13T10:39:36.933Z,100150.75
2023-04-13T10:42:07.677Z,100173.22
2023-04-13T10:44:44.695Z,100168.53
2023-04-13T10:47:14.606Z,100173.94
2023-04-13T10:49:47.008Z,100173.94
2023-04-13T10:52:16.337Z,100183.22
2023-04-13T10:54:45.644Z,100189.94
2023-04-13T10:57:16.936Z,100201.94
2023-04-13T10:59:57.966Z,100203.41
2023-04-13T11:02:33.047Z,100206.69
2023-04-13T11:05:03.320Z,100205.00
2023-04-13T11:07:33.662Z,100218.97
2023-04-13T11:10:03.315Z,100220.66
2023-04-13T11:12:32.197Z,100224.84
2023-04-13T11:15:00.839Z,100218.09
2023-04-13T11:17:29.628Z,100241.59
2023-04-13T11:19:59.282Z,100242.94
2023-04-13T11:22:37.153Z,100247.78
2023-04-13T11:25:10.528Z,100251.22
2023-04-13T11:27:39.069Z,100262.88
2023-04-13T11:30:11.230Z,100254.69
2023-04-13T11:32:44.324Z,100262.25
2023-04-13T11:35:15.365Z,100263.44
2023-04-13T11:37:49.343Z,100270.31
2023-04-13T11:40:21.558Z,100273.72
2023-04-13T11:42:51.807Z,100273.72
2023-04-13T11:45:21.865Z,100274.47
2023-04-13T11:47:52.229Z,100280.09
2023-04-13T11:50:21.626Z,100284.25
2023-04-13T11:52:59.675Z,100293.69
2023-04-13T11:55:29.187Z,100281.91
2023-04-13T11:57:59.929Z,100295.53
2023-04-13T12:00:30.132Z,100291.84
2023-04-13T12:03:02.617Z,100285.56
2023-04-13T12:05:34.450Z,100300.56
2023-04-13T12:08:05.110Z,100295.78
2023-04-13T12:10:41.416Z,100301.47
2023-04-13T12:13:24.057Z,100307.69
2023-04-13T12:16:08.555Z,100309.19
2023-04-13T12:18:46.953Z,100303.00
2023-04-13T12:21:20.553Z,100318.16
2023-04-13T12:23:59.910Z,100313.88
2023-04-13T12:27:16.127Z,100319.72
2023-04-13T12:29:26.582Z,100326.31
2023-04-13T12:32:03.932Z,100324.13
2023-04-13T12:34:32.443Z,100325.38
2023-04-13T12:37:00.732Z,100326.81
2023-04-13T12:39:32.794Z,100319.41
2023-04-13T12:42:01.333Z,100325.06
2023-04-13T12:44:31.224Z,100331.94
2023-04-13T12:47:00.725Z,100337.34
2023-04-13T12:49:29.143Z,100345.38
2023-04-13T12:51:58.118Z,100344.38
2023-04-13T12:54:30.935Z,100348.00
2023-04-13T12:56:59.809Z,100343.03
2023-04-13T12:59:28.339Z,100353.53
2023-04-13T13:02:00.006Z,100365.97
2023-04-13T13:04:31.391Z,100385.38
2023-04-13T13:07:00.578Z,100378.97
2023-04-13T13:09:31.319Z,100385.50
2023-04-13T13:11:59.682Z,100386.75
2023-04-13T13:14:29.215Z,100392.78
2023-04-13T13:16:57.530Z,100394.91
2023-04-13T13:19:25.899Z,100395.44
2023-04-13T13:21:54.530Z,100399.47
2023-04-13T13:24:25.804Z,100410.97
2023-04-13T13:27:40.602Z,100399.78
2023-04-13T13:29:50.229Z,100406.66
2023-04-13T13:32:20.673Z,100404.56
2023-04-13T13:34:52.151Z,100418.41
2023-04-13T13:37:21.958Z,100412.34
2023-04-13T13:39:50.414Z,100423.63
2023-04-13T13:42:20.195Z,100428.53
2023-04-13T13:44:49.131Z,100419.09
2023-04-13T13:47:17.642Z,100430.69
2023-04-13T13:49:46.442Z,100445.31
2023-04-13T13:52:14.919Z,100443.94
2023-04-13T13:54:43.284Z,100443.31
2023-04-13T13:57:11.794Z,100441.94
2023-04-13T13:59:41.609Z,100448.28
2023-04-13T14:02:12.822Z,100444.97
2023-04-13T14:04:41.575Z,100440.50
2023-04-13T14:07:10.406Z,100446.50
2023-04-13T14:09:39.112Z,100449.88
2023-04-13T14:12:09.305Z,100456.66
2023-04-13T14:14:37.688Z,100466.16
2023-04-13T14:17:07.908Z,100451.41
2023-04-13T14:19:36.457Z,100459.19
2023-04-13T14:22:04.896Z,100454.31
2023-04-13T14:24:33.287Z,100482.41
2023-04-13T14:27:01.628Z,100469.38
2023-04-13T14:29:32.128Z,100481.50
2023-04-13T14:32:00.537Z,100489.41
2023-04-13T14:34:31.380Z,100495.44
2023-04-13T14:37:00.600Z,100499.53
2023-04-13T14:39:28.821Z,100511.97
2023-04-13T14:41:57.060Z,100492.69
2023-04-13T14:44:26.085Z,100506.66
2023-04-13T14:46:59.204Z,100491.38
2023-04-13T14:49:29.121Z,100489.75
2023-04-13T14:51:57.601Z,100505.94
2023-04-13T14:54:26.316Z,100502.09
2023-04-13T14:56:58.030Z,100493.69
2023-04-13T14:59:41.869Z,100490.69
2023-04-13T15:02:12.113Z,100493.97
2023-04-13T15:04:44.438Z,100501.56
2023-04-13T15:07:14.324Z,100494.63
2023-04-13T15:09:43.277Z,100503.38
2023-04-13T15:12:13.540Z,100507.47
2023-04-13T15:14:46.550Z,100512.03
2023-04-13T15:17:15.059Z,100509.44
2023-04-13T15:19:44.765Z,100521.31
2023-04-13T15:22:13.070Z,100508.88
2023-04-13T15:24:41.388Z,100516.97
2023-04-13T15:27:14.140Z,100516.03
2023-04-13T15:29:45.686Z,100520.84
2023-04-13T15:32:15.485Z,100533.19
2023-04-13T15:34:47.196Z,100533.84
2023-04-13T15:37:17.068Z,100528.16
2023-04-13T15:39:45.871Z,100536.06
2023-04-13T15:42:14.627Z,100536.81
2023-04-13T15:44:44.380Z,100538.69
2023-04-13T15:47:14.420Z,100546.09
2023-04-13T15:49:44.483Z,100541.09
2023-04-13T15:52:13.356Z,100538.28
2023-04-13T15:54:42.563Z,100552.81
2023-04-13T15:57:13.301Z,100546.06
2023-04-13T15:59:50.839Z,100549.56
2023-04-13T16:02:20.899Z,100552.41
2023-04-13T16:04:52.945Z,100555.53
2023-04-13T16:07:21.887Z,100543.31
2023-04-13T16:09:58.759Z,100545.44
2023-04-13T16:12:33.203Z,100550.72
2023-04-13T16:15:03.433Z,100550.06
2023-04-13T16:17:34.036Z,100561.69
2023-04-13T16:20:17.757Z,100551.66
2023-04-13T16:22:49.208Z,100567.72
2023-04-13T16:25:22.319Z,100558.97
2023-04-13T16:27:54.855Z,100567.38
2023-04-13T16:30:24.927Z,100563.94
2023-04-13T16:32:54.863Z,100579.34
2023-04-13T16:35:27.931Z,100579.63
2023-04-13T16:38:09.331Z,100573.34
2023-04-13T16:40:38.354Z,100569.03
2023-04-13T16:43:07.266Z,100577.53
2023-04-13T16:45:37.996Z,100581.69
2023-04-13T16:48:10.731Z,100585.22
2023-04-13T16:50:42.018Z,100581.22
2023-04-13T16:53:16.990Z,100598.81
2023-04-13T16:55:51.812Z,100590.78
2023-04-13T16:58:26.016Z,100595.31
2023-04-13T17:00:54.631Z,100592.13
2023-04-13T17:03:24.011Z,100607.66
2023-04-13T17:05:57.638Z,100601.66
2023-04-13T17:08:28.319Z,100587.78
2023-04-13T17:10:58.218Z,100600.28
2023-04-13T17:13:27.577Z,100602.94
2023-04-13T17:15:56.555Z,100595.50
2023-04-13T17:18:25.399Z,100615.22
2023-04-13T17:20:58.834Z,100617.69
2023-04-13T17:23:31.033Z,100620.38
2023-04-13T17:25:59.963Z,100621.44
2023-04-13T17:28:30.999Z,100614.91
2023-04-13T17:30:59.556Z,100622.03
2023-04-13T17:33:29.425Z,100627.72
2023-04-13T17:36:00.824Z,100631.44
2023-04-13T17:38:30.129Z,100625.44
2023-04-13T17:41:00.537Z,100631.69
2023-04-13T17:43:29.365Z,100629.28
2023-04-13T17:46:00.028Z,100638.50
2023-04-13T17:48:29.199Z,100637.84
2023-04-13T17:51:00.435Z,100644.50
2023-04-13T17:53:29.906Z,100647.03
2023-04-13T17:56:01.608Z,100655.97
2023-04-13T17:58:33.248Z,100659.25
2023-04-13T18:01:09.190Z,100659.28
2023-04-13T18:03:41.219Z,100665.88
2023-04-13T18:06:11.959Z,100672.09
2023-04-13T18:08:41.728Z,100666.09
2023-04-13T18:11:11.549Z,100663.38
2023-04-13T18:13:45.385Z,100674.31
2023-04-13T18:16:15.151Z,100685.41
2023-04-13T18:18:47.902Z,100678.63
2023-04-13T18:21:23.029Z,100690.03
2023-04-13T18:23:57.248Z,100685.44
2023-04-13T18:26:26.490Z,100686.38
2023-04-13T18:28:57.590Z,100690.50
2023-04-13T18:31:27.742Z,100697.44
2023-04-13T18:33:57.965Z,100712.22
2023-04-13T18:36:29.825Z,100706.38
2023-04-13T18:38:58.870Z,100719.00
2023-04-13T18:41:28.383Z,100712.31
2023-04-13T18:43:57.014Z,100718.09
2023-04-13T18:46:29.672Z,100716.03
2023-04-13T18:49:02.352Z,100725.91
2023-04-13T18:51:33.590Z,100731.72
2023-04-13T18:54:02.670Z,100734.59
2023-04-13T18:56:36.452Z,100736.84
2023-04-13T18:59:05.754Z,100737.06
2023-04-13T19:01:35.431Z,100734.09
2023-04-13T19:04:04.860Z,100738.09
2023-04-13T19:06:36.748Z,100735.66
2023-04-13T19:09:08.591Z,100750.63
2023-04-13T19:12:02.914Z,100740.66
2023-04-13T19:14:33.436Z,100738.81
2023-04-13T19:17:03.870Z,100747.50
2023-04-13T19:19:32.707Z,100748.63
2023-04-13T19:22:03.475Z,100760.22
2023-04-13T19:24:32.629Z,100761.63
2023-04-13T19:27:01.571Z,100762.94
2023-04-13T19:29:33.586Z,100773.19
2023-04-13T19:32:05.405Z,100778.59
2023-04-13T19:34:34.748Z,100769.53
2023-04-13T19:37:06.198Z,100769.38
2023-04-13T19:39:35.315Z,100774.13
2023-04-13T19:42:05.125Z,100787.13
2023-04-13T19:44:34.240Z,100785.56
2023-04-13T19:47:03.754Z,100794.22
2023-04-13T19:49:33.323Z,100795.69
2023-04-13T19:52:04.087Z,100806.50
2023-04-13T19:54:33.586Z,100811.13
2023-04-13T19:57:02.777Z,100813.22
2023-04-13T19:59:32.244Z,100817.25
2023-04-13T20:02:03.388Z,100808.34
2023-04-13T20:04:32.685Z,100808.59
2023-04-13T20:07:02.004Z,100823.44
2023-04-13T20:09:32.074Z,100821.91
2023-04-13T20:12:01.841Z,100819.91
2023-04-13T20:14:31.436Z,100821.88
2023-04-13T20:17:01.649Z,100821.34
2023-04-13T20:19:30.437Z,100832.16
2023-04-13T20:22:03.001Z,100830.91
2023-04-13T20:24:33.785Z,100833.66
2023-04-13T20:27:04.051Z,100830.81
2023-04-13T20:29:36.120Z,100833.72
2023-04-13T20:32:10.251Z,100844.16
2023-04-13T20:34:41.706Z,100842.81
2023-04-13T20:37:10.817Z,100852.56
2023-04-13T20:39:50.220Z,100848.53
2023-04-13T20:42:20.192Z,100858.88
2023-04-13T20:44:49.531Z,100862.06
2023-04-13T20:47:20.083Z,100863.94
2023-04-13T20:49:54.852Z,100869.16
2023-04-13T20:52:26.024Z,100866.97
2023-04-13T20:54:58.331Z,100872.22
2023-04-13T20:57:28.015Z,100866.66
2023-04-13T20:59:56.998Z,100873.00
2023-04-13T21:02:29.749Z,100873.09
2023-04-13T21:04:58.793Z,100875.63
2023-04-13T21:07:30.459Z,100884.69
2023-04-13T21:10:01.784Z,100885.25
2023-04-13T21:12:30.668Z,100888.25
2023-04-13T21:14:59.957Z,100885.22
2023-04-13T21:17:30.865Z,100893.38
2023-04-13T21:19:59.682Z,100887.38
2023-04-13T21:22:29.008Z,100900.53
2023-04-13T21:25:00.670Z,100902.44
2023-04-13T21:27:31.629Z,100907.00
2023-04-13T21:30:02.430Z,100903.59
2023-04-13T21:32:31.541Z,100901.00
2023-04-13T21:35:00.742Z,100907.00
2023-04-13T21:37:32.969Z,100900.53
2023-04-13T21:40:05.690Z,100906.25
2023-04-13T21:42:38.947Z,100915.13
2023-04-13T21:45:12.507Z,100911.34
2023-04-13T21:47:41.388Z,100907.41
2023-04-13T21:50:11.051Z,100914.75
2023-04-13T21:52:40.123Z,100906.78
2023-04-13T21:55:18.107Z,100900.09
2023-04-13T21:57:47.584Z,100905.91
2023-04-13T22:00:19.531Z,100904.84
2023-04-13T22:02:49.741Z,100904.91
2023-04-13T22:05:18.021Z,100892.56
2023-04-13T22:07:48.445Z,100899.84
2023-04-13T22:10:19.405Z,100909.66
2023-04-13T22:12:49.412Z,100905.75
2023-04-13T22:15:19.193Z,100909.19
2023-04-13T22:17:48.868Z,100906.97
2023-04-13T22:20:20.865Z,100910.16
2023-04-13T22:22:52.354Z,100904.31
2023-04-13T22:25:25.410Z,100908.75
2023-04-13T22:27:54.404Z,100906.97
2023-04-13T22:30:24.700Z,100909.69
2023-04-13T22:32:54.132Z,100905.88
2023-04-13T22:35:23.880Z,100905.41
2023-04-13T22:37:54.345Z,100905.56
2023-04-13T22:40:25.147Z,100913.78
2023-04-13T22:42:55.139Z,100912.03
2023-04-13T22:45:24.220Z,100907.09
2023-04-13T22:47:55.250Z,100903.63
2023-04-13T22:50:23.824Z,100903.66
2023-04-13T22:52:53.345Z,100903.88
2023-04-13T22:55:24.105Z,100897.97
2023-04-13T22:57:55.438Z,100898.59
2023-04-13T23:00:24.819Z,100904.25
2023-04-13T23:02:56.299Z,100900.41
2023-04-13T23:05:26.735Z,100896.16
2023-04-13T23:07:55.890Z,100899.47
2023-04-13T23:10:39.407Z,100898.34
2023-04-13T23:13:08.939Z,100902.75
2023-04-13T23:15:38.099Z,100911.66
2023-04-13T23:18:08.128Z,100901.81
2023-04-13T23:20:37.752Z,100907.44
2023-04-13T23:23:06.314Z,100907.16
2023-04-13T23:25:36.729Z,100911.44
2023-04-13T23:28:06.875Z,100906.81
2023-04-13T23:30:37.627Z,100909.28
2023-04-13T23:33:08.743Z,100911.34
2023-04-13T23:35:37.379Z,100912.09
2023-04-13T23:38:06.381Z,100907.78
2023-04-13T23:40:37.137Z,100911.34
2023-04-13T23:43:06.143Z,100904.56
2023-04-13T23:45:34.695Z,100904.00
2023-04-13T23:48:04.378Z,100914.78
2023-04-13T23:50:33.954Z,100919.53
2023-04-13T23:53:02.563Z,100922.63
2023-04-13T23:55:32.125Z,100920.28
2023-04-13T23:58:02.751Z,100927.75
